sensor_id;sensor_type;location;lat;lon;timestamp;P1;durP1;ratioP1;P2;durP2;ratioP2
9160;SDS011;4615;51.340;8.288;2023-03-01T00:01:27;12.40;;;11.20;;
9160;SDS011;4615;51.340;8.288;2023-03-01T00:03:54;12.95;;;11.75;;
9160;SDS011;4615;51.340;8.288;2023-03-01T00:06:21;13.48;;;12.02;;
9160;SDS011;4615;51.340;8.288;2023-03-01T00:08:49;15.38;;;13.55;;
9160;SDS011;4615;51.340;8.288;2023-03-01T00:11:16;14.95;;;13.45;;
9160;SDS011;4615;51.340;8.288;2023-03-01T00:13:44;15.57;;;13.97;;
9160;SDS011;4615;51.340;8.288;2023-03-01T00:16:11;15.15;;;13.55;;
9160;SDS011;4615;51.340;8.288;2023-03-01T00:18:39;15.85;;;14.13;;
9160;SDS011;4615;51.340;8.288;2023-03-01T00:21:05;17.83;;;14.90;;
9160;SDS011;4615;51.340;8.288;2023-03-01T00:23:31;16.33;;;14.23;;
9160;SDS011;4615;51.340;8.288;2023-03-01T00:26:00;15.25;;;13.68;;
9160;SDS011;4615;51.340;8.288;2023-03-01T00:28:27;15.07;;;13.48;;
9160;SDS011;4615;51.340;8.288;2023-03-01T00:30:53;15.68;;;14.07;;
9160;SDS011;4615;51.340;8.288;2023-03-01T00:33:20;15.25;;;13.68;;
9160;SDS011;4615;51.340;8.288;2023-03-01T00:35:46;14.83;;;13.40;;
9160;SDS011;4615;51.340;8.288;2023-03-01T00:38:12;14.98;;;13.48;;
9160;SDS011;4615;51.340;8.288;2023-03-01T00:40:39;15.65;;;13.93;;
9160;SDS011;4615;51.340;8.288;2023-03-01T00:43:06;16.38;;;14.50;;
9160;SDS011;4615;51.340;8.288;2023-03-01T00:45:35;15.60;;;14.00;;
9160;SDS011;4615;51.340;8.288;2023-03-01T00:48:01;15.23;;;13.68;;
9160;SDS011;4615;51.340;8.288;2023-03-01T00:50:27;15.25;;;13.75;;
9160;SDS011;4615;51.340;8.288;2023-03-01T00:52:54;14.32;;;12.90;;
9160;SDS011;4615;51.340;8.288;2023-03-01T00:55:21;14.07;;;12.60;;
9160;SDS011;4615;51.340;8.288;2023-03-01T00:57:47;14.65;;;13.15;;
9160;SDS011;4615;51.340;8.288;2023-03-01T01:00:16;14.35;;;12.95;;
9160;SDS011;4615;51.340;8.288;2023-03-01T01:02:42;14.80;;;13.35;;
9160;SDS011;4615;51.340;8.288;2023-03-01T01:05:09;15.07;;;13.57;;
9160;SDS011;4615;51.340;8.288;2023-03-01T01:07:35;14.38;;;13.05;;
9160;SDS011;4615;51.340;8.288;2023-03-01T01:10:02;14.23;;;12.82;;
9160;SDS011;4615;51.340;8.288;2023-03-01T01:12:28;13.15;;;11.77;;
9160;SDS011;4615;51.340;8.288;2023-03-01T01:14:54;13.17;;;11.97;;
9160;SDS011;4615;51.340;8.288;2023-03-01T01:17:22;13.65;;;12.30;;
9160;SDS011;4615;51.340;8.288;2023-03-01T01:19:49;14.02;;;12.48;;
9160;SDS011;4615;51.340;8.288;2023-03-01T01:22:15;14.10;;;12.70;;
9160;SDS011;4615;51.340;8.288;2023-03-01T01:24:42;14.20;;;12.77;;
9160;SDS011;4615;51.340;8.288;2023-03-01T01:27:08;14.30;;;12.90;;
9160;SDS011;4615;51.340;8.288;2023-03-01T01:29:34;15.35;;;13.95;;
9160;SDS011;4615;51.340;8.288;2023-03-01T01:32:01;15.10;;;13.70;;
9160;SDS011;4615;51.340;8.288;2023-03-01T01:34:29;14.75;;;13.35;;
9160;SDS011;4615;51.340;8.288;2023-03-01T01:36:55;14.23;;;12.93;;
9160;SDS011;4615;51.340;8.288;2023-03-01T01:39:22;15.13;;;13.53;;
9160;SDS011;4615;51.340;8.288;2023-03-01T01:41:48;14.18;;;12.73;;
9160;SDS011;4615;51.340;8.288;2023-03-01T01:44:16;15.00;;;13.60;;
9160;SDS011;4615;51.340;8.288;2023-03-01T01:46:44;14.98;;;13.55;;
9160;SDS011;4615;51.340;8.288;2023-03-01T01:49:15;15.05;;;13.60;;
9160;SDS011;4615;51.340;8.288;2023-03-01T01:51:45;13.95;;;12.55;;
9160;SDS011;4615;51.340;8.288;2023-03-01T01:54:14;13.20;;;11.88;;
9160;SDS011;4615;51.340;8.288;2023-03-01T01:56:42;13.65;;;12.35;;
9160;SDS011;4615;51.340;8.288;2023-03-01T01:59:10;14.75;;;13.25;;
9160;SDS011;4615;51.340;8.288;2023-03-01T02:01:37;14.32;;;12.90;;
9160;SDS011;4615;51.340;8.288;2023-03-01T02:04:04;14.70;;;12.85;;
9160;SDS011;4615;51.340;8.288;2023-03-01T02:06:32;13.65;;;12.35;;
9160;SDS011;4615;51.340;8.288;2023-03-01T02:09:03;14.52;;;13.07;;
9160;SDS011;4615;51.340;8.288;2023-03-01T02:11:31;14.57;;;13.18;;
9160;SDS011;4615;51.340;8.288;2023-03-01T02:13:58;15.10;;;13.40;;
9160;SDS011;4615;51.340;8.288;2023-03-01T02:16:25;14.83;;;13.40;;
9160;SDS011;4615;51.340;8.288;2023-03-01T02:18:51;15.98;;;14.25;;
9160;SDS011;4615;51.340;8.288;2023-03-01T02:21:23;14.45;;;12.95;;
9160;SDS011;4615;51.340;8.288;2023-03-01T02:23:51;15.57;;;14.07;;
9160;SDS011;4615;51.340;8.288;2023-03-01T02:26:20;14.85;;;13.35;;
9160;SDS011;4615;51.340;8.288;2023-03-01T02:28:50;15.80;;;14.20;;
9160;SDS011;4615;51.340;8.288;2023-03-01T02:31:18;16.00;;;14.40;;
9160;SDS011;4615;51.340;8.288;2023-03-01T02:34:03;16.40;;;14.70;;
9160;SDS011;4615;51.340;8.288;2023-03-01T02:36:31;16.85;;;15.15;;
9160;SDS011;4615;51.340;8.288;2023-03-01T02:38:58;16.92;;;15.23;;
9160;SDS011;4615;51.340;8.288;2023-03-01T02:41:27;16.52;;;14.93;;
9160;SDS011;4615;51.340;8.288;2023-03-01T02:43:56;14.87;;;13.27;;
9160;SDS011;4615;51.340;8.288;2023-03-01T02:46:23;15.18;;;13.57;;
9160;SDS011;4615;51.340;8.288;2023-03-01T02:48:50;15.55;;;13.95;;
9160;SDS011;4615;51.340;8.288;2023-03-01T02:51:26;16.00;;;14.00;;
9160;SDS011;4615;51.340;8.288;2023-03-01T02:53:57;16.00;;;14.00;;
9160;SDS011;4615;51.340;8.288;2023-03-01T02:56:27;14.23;;;12.82;;
9160;SDS011;4615;51.340;8.288;2023-03-01T02:58:55;15.35;;;13.70;;
9160;SDS011;4615;51.340;8.288;2023-03-01T03:01:25;15.10;;;13.60;;
9160;SDS011;4615;51.340;8.288;2023-03-01T03:04:02;14.48;;;12.35;;
9160;SDS011;4615;51.340;8.288;2023-03-01T03:06:29;16.25;;;13.05;;
9160;SDS011;4615;51.340;8.288;2023-03-01T03:08:55;13.75;;;12.07;;
9160;SDS011;4615;51.340;8.288;2023-03-01T03:11:21;14.77;;;13.27;;
9160;SDS011;4615;51.340;8.288;2023-03-01T03:13:48;16.02;;;14.32;;
9160;SDS011;4615;51.340;8.288;2023-03-01T03:16:16;14.77;;;13.05;;
9160;SDS011;4615;51.340;8.288;2023-03-01T03:18:42;16.30;;;14.68;;
9160;SDS011;4615;51.340;8.288;2023-03-01T03:21:09;16.58;;;14.98;;
9160;SDS011;4615;51.340;8.288;2023-03-01T03:23:36;16.98;;;15.32;;
9160;SDS011;4615;51.340;8.288;2023-03-01T03:26:03;17.65;;;15.25;;
9160;SDS011;4615;51.340;8.288;2023-03-01T03:28:29;17.55;;;15.77;;
9160;SDS011;4615;51.340;8.288;2023-03-01T03:30:56;17.67;;;15.68;;
9160;SDS011;4615;51.340;8.288;2023-03-01T03:33:24;18.65;;;16.85;;
9160;SDS011;4615;51.340;8.288;2023-03-01T03:35:51;17.17;;;15.48;;
9160;SDS011;4615;51.340;8.288;2023-03-01T03:38:18;15.95;;;14.30;;
9160;SDS011;4615;51.340;8.288;2023-03-01T03:40:47;15.27;;;13.60;;
9160;SDS011;4615;51.340;8.288;2023-03-01T03:43:15;15.70;;;13.02;;
9160;SDS011;4615;51.340;8.288;2023-03-01T03:45:43;14.82;;;13.20;;
9160;SDS011;4615;51.340;8.288;2023-03-01T03:48:10;15.82;;;14.15;;
9160;SDS011;4615;51.340;8.288;2023-03-01T03:50:38;15.55;;;13.93;;
9160;SDS011;4615;51.340;8.288;2023-03-01T03:53:05;15.57;;;13.90;;
9160;SDS011;4615;51.340;8.288;2023-03-01T03:55:32;18.13;;;15.13;;
9160;SDS011;4615;51.340;8.288;2023-03-01T03:57:59;18.08;;;16.02;;
9160;SDS011;4615;51.340;8.288;2023-03-01T04:00:27;18.88;;;16.85;;
9160;SDS011;4615;51.340;8.288;2023-03-01T04:02:54;18.90;;;16.98;;
9160;SDS011;4615;51.340;8.288;2023-03-01T04:05:21;18.07;;;16.27;;
9160;SDS011;4615;51.340;8.288;2023-03-01T04:07:49;20.08;;;17.95;;
9160;SDS011;4615;51.340;8.288;2023-03-01T04:10:25;15.85;;;14.15;;
9160;SDS011;4615;51.340;8.288;2023-03-01T04:12:52;17.40;;;15.60;;
9160;SDS011;4615;51.340;8.288;2023-03-01T04:15:21;17.23;;;15.43;;
9160;SDS011;4615;51.340;8.288;2023-03-01T04:17:49;17.13;;;15.35;;
9160;SDS011;4615;51.340;8.288;2023-03-01T04:20:17;17.88;;;15.50;;
9160;SDS011;4615;51.340;8.288;2023-03-01T04:22:51;16.58;;;14.88;;
9160;SDS011;4615;51.340;8.288;2023-03-01T04:25:18;18.33;;;15.45;;
9160;SDS011;4615;51.340;8.288;2023-03-01T04:27:44;19.48;;;16.90;;
9160;SDS011;4615;51.340;8.288;2023-03-01T04:30:11;16.90;;;15.10;;
9160;SDS011;4615;51.340;8.288;2023-03-01T04:32:37;18.10;;;16.30;;
9160;SDS011;4615;51.340;8.288;2023-03-01T04:35:04;19.33;;;17.10;;
9160;SDS011;4615;51.340;8.288;2023-03-01T04:37:30;17.25;;;15.45;;
9160;SDS011;4615;51.340;8.288;2023-03-01T04:39:58;17.27;;;15.40;;
9160;SDS011;4615;51.340;8.288;2023-03-01T04:42:24;16.77;;;15.05;;
9160;SDS011;4615;51.340;8.288;2023-03-01T04:44:51;17.05;;;15.10;;
9160;SDS011;4615;51.340;8.288;2023-03-01T04:47:18;19.50;;;17.20;;
9160;SDS011;4615;51.340;8.288;2023-03-01T04:49:44;21.10;;;18.35;;
9160;SDS011;4615;51.340;8.288;2023-03-01T04:52:11;19.15;;;17.15;;
9160;SDS011;4615;51.340;8.288;2023-03-01T04:54:37;20.67;;;16.75;;
9160;SDS011;4615;51.340;8.288;2023-03-01T04:57:05;16.48;;;14.77;;
9160;SDS011;4615;51.340;8.288;2023-03-01T04:59:32;16.50;;;14.07;;
9160;SDS011;4615;51.340;8.288;2023-03-01T05:01:58;16.30;;;14.70;;
9160;SDS011;4615;51.340;8.288;2023-03-01T05:04:25;16.10;;;14.48;;
9160;SDS011;4615;51.340;8.288;2023-03-01T05:06:52;17.73;;;15.20;;
9160;SDS011;4615;51.340;8.288;2023-03-01T05:09:18;19.23;;;15.65;;
9160;SDS011;4615;51.340;8.288;2023-03-01T05:11:45;17.25;;;15.50;;
9160;SDS011;4615;51.340;8.288;2023-03-01T05:14:13;16.50;;;14.90;;
9160;SDS011;4615;51.340;8.288;2023-03-01T05:16:39;16.63;;;14.93;;
9160;SDS011;4615;51.340;8.288;2023-03-01T05:19:05;17.73;;;14.50;;
9160;SDS011;4615;51.340;8.288;2023-03-01T05:21:36;16.93;;;15.13;;
9160;SDS011;4615;51.340;8.288;2023-03-01T05:24:23;17.15;;;15.48;;
9160;SDS011;4615;51.340;8.288;2023-03-01T05:26:49;18.40;;;16.40;;
9160;SDS011;4615;51.340;8.288;2023-03-01T05:29:18;19.05;;;16.85;;
9160;SDS011;4615;51.340;8.288;2023-03-01T05:31:50;16.60;;;14.88;;
9160;SDS011;4615;51.340;8.288;2023-03-01T05:34:16;17.92;;;16.02;;
9160;SDS011;4615;51.340;8.288;2023-03-01T05:36:42;17.20;;;15.35;;
9160;SDS011;4615;51.340;8.288;2023-03-01T05:39:09;16.52;;;14.80;;
9160;SDS011;4615;51.340;8.288;2023-03-01T05:41:35;17.55;;;15.73;;
9160;SDS011;4615;51.340;8.288;2023-03-01T05:44:01;16.27;;;14.65;;
9160;SDS011;4615;51.340;8.288;2023-03-01T05:46:31;17.17;;;15.48;;
9160;SDS011;4615;51.340;8.288;2023-03-01T05:48:57;19.30;;;17.33;;
9160;SDS011;4615;51.340;8.288;2023-03-01T05:51:25;18.80;;;16.90;;
9160;SDS011;4615;51.340;8.288;2023-03-01T05:53:51;18.92;;;17.02;;
9160;SDS011;4615;51.340;8.288;2023-03-01T05:56:17;19.80;;;17.33;;
9160;SDS011;4615;51.340;8.288;2023-03-01T05:58:44;20.05;;;17.88;;
9160;SDS011;4615;51.340;8.288;2023-03-01T06:01:11;19.90;;;17.70;;
9160;SDS011;4615;51.340;8.288;2023-03-01T06:03:39;19.50;;;17.48;;
9160;SDS011;4615;51.340;8.288;2023-03-01T06:06:05;19.08;;;17.13;;
9160;SDS011;4615;51.340;8.288;2023-03-01T06:08:32;18.75;;;16.55;;
9160;SDS011;4615;51.340;8.288;2023-03-01T06:10:58;17.88;;;16.13;;
9160;SDS011;4615;51.340;8.288;2023-03-01T06:13:25;21.63;;;18.73;;
9160;SDS011;4615;51.340;8.288;2023-03-01T06:15:51;20.23;;;17.73;;
9160;SDS011;4615;51.340;8.288;2023-03-01T06:18:17;20.55;;;17.45;;
9160;SDS011;4615;51.340;8.288;2023-03-01T06:20:51;19.33;;;17.35;;
9160;SDS011;4615;51.340;8.288;2023-03-01T06:23:18;19.23;;;17.20;;
9160;SDS011;4615;51.340;8.288;2023-03-01T06:25:44;20.33;;;18.08;;
9160;SDS011;4615;51.340;8.288;2023-03-01T06:28:11;20.85;;;18.70;;
9160;SDS011;4615;51.340;8.288;2023-03-01T06:30:37;20.85;;;18.67;;
9160;SDS011;4615;51.340;8.288;2023-03-01T06:33:03;19.40;;;17.38;;
9160;SDS011;4615;51.340;8.288;2023-03-01T06:35:30;17.70;;;15.90;;
9160;SDS011;4615;51.340;8.288;2023-03-01T06:38:00;17.40;;;15.52;;
9160;SDS011;4615;51.340;8.288;2023-03-01T06:40:27;17.48;;;15.65;;
9160;SDS011;4615;51.340;8.288;2023-03-01T06:42:53;16.97;;;15.37;;
9160;SDS011;4615;51.340;8.288;2023-03-01T06:45:20;16.73;;;15.10;;
9160;SDS011;4615;51.340;8.288;2023-03-01T06:47:46;17.75;;;16.05;;
9160;SDS011;4615;51.340;8.288;2023-03-01T06:50:13;16.75;;;15.00;;
9160;SDS011;4615;51.340;8.288;2023-03-01T06:52:40;18.75;;;16.90;;
9160;SDS011;4615;51.340;8.288;2023-03-01T06:55:10;17.33;;;15.40;;
9160;SDS011;4615;51.340;8.288;2023-03-01T06:57:36;16.58;;;14.85;;
9160;SDS011;4615;51.340;8.288;2023-03-01T07:00:03;18.25;;;16.30;;
9160;SDS011;4615;51.340;8.288;2023-03-01T07:02:30;19.33;;;17.33;;
9160;SDS011;4615;51.340;8.288;2023-03-01T07:04:57;19.27;;;17.27;;
9160;SDS011;4615;51.340;8.288;2023-03-01T07:07:23;17.80;;;16.00;;
9160;SDS011;4615;51.340;8.288;2023-03-01T07:09:50;17.52;;;15.73;;
9160;SDS011;4615;51.340;8.288;2023-03-01T07:12:17;19.15;;;17.02;;
9160;SDS011;4615;51.340;8.288;2023-03-01T07:14:44;19.42;;;17.50;;
9160;SDS011;4615;51.340;8.288;2023-03-01T07:17:10;20.27;;;18.17;;
9160;SDS011;4615;51.340;8.288;2023-03-01T07:19:37;19.05;;;17.10;;
9160;SDS011;4615;51.340;8.288;2023-03-01T07:22:05;20.25;;;17.83;;
9160;SDS011;4615;51.340;8.288;2023-03-01T07:24:33;20.17;;;18.08;;
9160;SDS011;4615;51.340;8.288;2023-03-01T07:26:59;22.05;;;19.42;;
9160;SDS011;4615;51.340;8.288;2023-03-01T07:29:27;21.05;;;18.90;;
9160;SDS011;4615;51.340;8.288;2023-03-01T07:31:54;21.63;;;19.38;;
9160;SDS011;4615;51.340;8.288;2023-03-01T07:34:20;24.25;;;19.90;;
9160;SDS011;4615;51.340;8.288;2023-03-01T07:36:47;24.67;;;20.07;;
9160;SDS011;4615;51.340;8.288;2023-03-01T07:39:13;23.35;;;19.52;;
9160;SDS011;4615;51.340;8.288;2023-03-01T07:41:39;18.17;;;15.93;;
9160;SDS011;4615;51.340;8.288;2023-03-01T07:44:06;23.52;;;19.15;;
9160;SDS011;4615;51.340;8.288;2023-03-01T07:46:34;26.00;;;20.10;;
9160;SDS011;4615;51.340;8.288;2023-03-01T07:49:00;22.45;;;18.88;;
9160;SDS011;4615;51.340;8.288;2023-03-01T07:51:26;21.00;;;18.73;;
9160;SDS011;4615;51.340;8.288;2023-03-01T07:53:53;20.77;;;18.58;;
9160;SDS011;4615;51.340;8.288;2023-03-01T07:56:19;21.83;;;19.52;;
9160;SDS011;4615;51.340;8.288;2023-03-01T07:58:47;20.05;;;17.85;;
9160;SDS011;4615;51.340;8.288;2023-03-01T08:01:16;18.42;;;16.63;;
9160;SDS011;4615;51.340;8.288;2023-03-01T08:03:44;18.98;;;16.83;;
9160;SDS011;4615;51.340;8.288;2023-03-01T08:06:11;17.83;;;16.02;;
9160;SDS011;4615;51.340;8.288;2023-03-01T08:08:38;17.10;;;15.30;;
9160;SDS011;4615;51.340;8.288;2023-03-01T08:11:05;13.60;;;12.20;;
9160;SDS011;4615;51.340;8.288;2023-03-01T08:13:31;13.50;;;12.10;;
9160;SDS011;4615;51.340;8.288;2023-03-01T08:16:00;12.30;;;11.00;;
9160;SDS011;4615;51.340;8.288;2023-03-01T08:18:27;11.40;;;10.20;;
9160;SDS011;4615;51.340;8.288;2023-03-01T08:20:54;11.10;;;10.00;;
9160;SDS011;4615;51.340;8.288;2023-03-01T08:23:21;10.63;;;9.63;;
9160;SDS011;4615;51.340;8.288;2023-03-01T08:25:47;12.48;;;9.95;;
9160;SDS011;4615;51.340;8.288;2023-03-01T08:28:14;11.35;;;10.18;;
9160;SDS011;4615;51.340;8.288;2023-03-01T08:30:40;12.03;;;10.73;;
9160;SDS011;4615;51.340;8.288;2023-03-01T08:33:06;16.05;;;11.40;;
9160;SDS011;4615;51.340;8.288;2023-03-01T08:35:33;11.40;;;10.10;;
9160;SDS011;4615;51.340;8.288;2023-03-01T08:38:00;9.93;;;8.93;;
9160;SDS011;4615;51.340;8.288;2023-03-01T08:40:27;10.32;;;8.35;;
9160;SDS011;4615;51.340;8.288;2023-03-01T08:42:53;9.73;;;8.27;;
9160;SDS011;4615;51.340;8.288;2023-03-01T08:45:20;9.18;;;7.90;;
9160;SDS011;4615;51.340;8.288;2023-03-01T08:47:46;9.13;;;8.10;;
9160;SDS011;4615;51.340;8.288;2023-03-01T08:50:12;9.65;;;7.80;;
9160;SDS011;4615;51.340;8.288;2023-03-01T08:52:39;8.35;;;7.45;;
9160;SDS011;4615;51.340;8.288;2023-03-01T08:55:07;9.95;;;8.07;;
9160;SDS011;4615;51.340;8.288;2023-03-01T08:57:34;9.60;;;8.50;;
9160;SDS011;4615;51.340;8.288;2023-03-01T09:00:00;9.48;;;8.50;;
9160;SDS011;4615;51.340;8.288;2023-03-01T09:02:28;8.88;;;8.00;;
9160;SDS011;4615;51.340;8.288;2023-03-01T09:04:54;8.38;;;7.47;;
9160;SDS011;4615;51.340;8.288;2023-03-01T09:07:21;8.13;;;7.32;;
9160;SDS011;4615;51.340;8.288;2023-03-01T09:09:53;9.93;;;7.80;;
9160;SDS011;4615;51.340;8.288;2023-03-01T09:12:21;9.02;;;7.57;;
9160;SDS011;4615;51.340;8.288;2023-03-01T09:14:49;10.25;;;7.57;;
9160;SDS011;4615;51.340;8.288;2023-03-01T09:17:16;8.60;;;7.40;;
9160;SDS011;4615;51.340;8.288;2023-03-01T09:19:42;8.02;;;7.18;;
9160;SDS011;4615;51.340;8.288;2023-03-01T09:22:09;9.00;;;7.85;;
9160;SDS011;4615;51.340;8.288;2023-03-01T09:24:35;9.48;;;7.85;;
9160;SDS011;4615;51.340;8.288;2023-03-01T09:27:01;9.18;;;7.50;;
9160;SDS011;4615;51.340;8.288;2023-03-01T09:29:29;8.13;;;7.33;;
9160;SDS011;4615;51.340;8.288;2023-03-01T09:31:56;8.93;;;7.75;;
9160;SDS011;4615;51.340;8.288;2023-03-01T09:34:22;9.13;;;7.43;;
9160;SDS011;4615;51.340;8.288;2023-03-01T09:36:49;9.35;;;7.93;;
9160;SDS011;4615;51.340;8.288;2023-03-01T09:39:16;8.43;;;7.53;;
9160;SDS011;4615;51.340;8.288;2023-03-01T09:41:44;7.60;;;6.82;;
9160;SDS011;4615;51.340;8.288;2023-03-01T09:44:13;7.95;;;7.15;;
9160;SDS011;4615;51.340;8.288;2023-03-01T09:46:43;8.25;;;7.32;;
9160;SDS011;4615;51.340;8.288;2023-03-01T09:49:12;9.30;;;7.85;;
9160;SDS011;4615;51.340;8.288;2023-03-01T09:51:42;9.10;;;7.25;;
9160;SDS011;4615;51.340;8.288;2023-03-01T09:54:08;8.23;;;7.03;;
9160;SDS011;4615;51.340;8.288;2023-03-01T09:56:36;7.07;;;6.38;;
9160;SDS011;4615;51.340;8.288;2023-03-01T09:59:06;7.55;;;6.75;;
9160;SDS011;4615;51.340;8.288;2023-03-01T10:01:38;7.97;;;6.88;;
9160;SDS011;4615;51.340;8.288;2023-03-01T10:04:23;8.50;;;7.40;;
9160;SDS011;4615;51.340;8.288;2023-03-01T10:06:51;7.80;;;7.00;;
9160;SDS011;4615;51.340;8.288;2023-03-01T10:09:22;7.93;;;6.88;;
9160;SDS011;4615;51.340;8.288;2023-03-01T10:11:50;8.48;;;6.97;;
9160;SDS011;4615;51.340;8.288;2023-03-01T10:14:20;8.27;;;6.50;;
9160;SDS011;4615;51.340;8.288;2023-03-01T10:16:50;7.60;;;6.68;;
9160;SDS011;4615;51.340;8.288;2023-03-01T10:19:22;7.40;;;6.60;;
9160;SDS011;4615;51.340;8.288;2023-03-01T10:21:49;7.17;;;6.33;;
9160;SDS011;4615;51.340;8.288;2023-03-01T10:24:17;8.07;;;7.03;;
9160;SDS011;4615;51.340;8.288;2023-03-01T10:26:53;8.07;;;7.05;;
9160;SDS011;4615;51.340;8.288;2023-03-01T10:29:21;8.67;;;7.10;;
9160;SDS011;4615;51.340;8.288;2023-03-01T10:31:50;8.65;;;7.10;;
9160;SDS011;4615;51.340;8.288;2023-03-01T10:34:17;8.73;;;7.15;;
9160;SDS011;4615;51.340;8.288;2023-03-01T10:36:47;7.72;;;6.90;;
9160;SDS011;4615;51.340;8.288;2023-03-01T10:39:15;8.52;;;6.88;;
9160;SDS011;4615;51.340;8.288;2023-03-01T10:41:51;7.72;;;6.80;;
9160;SDS011;4615;51.340;8.288;2023-03-01T10:44:34;8.02;;;6.75;;
9160;SDS011;4615;51.340;8.288;2023-03-01T10:47:00;9.25;;;6.68;;
9160;SDS011;4615;51.340;8.288;2023-03-01T10:49:27;8.25;;;6.60;;
9160;SDS011;4615;51.340;8.288;2023-03-01T10:51:55;7.65;;;6.50;;
9160;SDS011;4615;51.340;8.288;2023-03-01T10:54:22;8.90;;;6.88;;
9160;SDS011;4615;51.340;8.288;2023-03-01T10:56:51;7.85;;;6.95;;
9160;SDS011;4615;51.340;8.288;2023-03-01T10:59:21;8.07;;;6.95;;
9160;SDS011;4615;51.340;8.288;2023-03-01T11:01:49;8.00;;;7.20;;
9160;SDS011;4615;51.340;8.288;2023-03-01T11:04:26;9.57;;;7.25;;
9160;SDS011;4615;51.340;8.288;2023-03-01T11:06:58;8.33;;;6.60;;
9160;SDS011;4615;51.340;8.288;2023-03-01T11:09:25;8.53;;;7.07;;
9160;SDS011;4615;51.340;8.288;2023-03-01T11:11:53;8.50;;;6.95;;
9160;SDS011;4615;51.340;8.288;2023-03-01T11:14:20;10.23;;;7.60;;
9160;SDS011;4615;51.340;8.288;2023-03-01T11:16:48;7.80;;;7.00;;
9160;SDS011;4615;51.340;8.288;2023-03-01T11:19:16;8.38;;;6.78;;
9160;SDS011;4615;51.340;8.288;2023-03-01T11:21:47;8.52;;;6.85;;
9160;SDS011;4615;51.340;8.288;2023-03-01T11:24:18;7.90;;;7.00;;
9160;SDS011;4615;51.340;8.288;2023-03-01T11:26:45;7.40;;;6.60;;
9160;SDS011;4615;51.340;8.288;2023-03-01T11:29:16;8.57;;;7.18;;
9160;SDS011;4615;51.340;8.288;2023-03-01T11:31:43;8.77;;;7.28;;
9160;SDS011;4615;51.340;8.288;2023-03-01T11:34:11;7.22;;;6.47;;
9160;SDS011;4615;51.340;8.288;2023-03-01T11:36:40;7.50;;;6.72;;
9160;SDS011;4615;51.340;8.288;2023-03-01T11:39:12;7.60;;;6.87;;
9160;SDS011;4615;51.340;8.288;2023-03-01T11:41:43;8.13;;;6.97;;
9160;SDS011;4615;51.340;8.288;2023-03-01T11:44:12;6.88;;;6.25;;
9160;SDS011;4615;51.340;8.288;2023-03-01T11:46:43;8.23;;;6.53;;
9160;SDS011;4615;51.340;8.288;2023-03-01T11:51:59;7.22;;;6.45;;
9160;SDS011;4615;51.340;8.288;2023-03-01T11:54:30;9.17;;;6.87;;
9160;SDS011;4615;51.340;8.288;2023-03-01T11:57:03;8.52;;;7.10;;
9160;SDS011;4615;51.340;8.288;2023-03-01T11:59:37;7.43;;;6.63;;
9160;SDS011;4615;51.340;8.288;2023-03-01T12:02:18;8.27;;;6.63;;
9160;SDS011;4615;51.340;8.288;2023-03-01T12:04:59;7.50;;;6.40;;
9160;SDS011;4615;51.340;8.288;2023-03-01T12:07:30;7.20;;;6.03;;
9160;SDS011;4615;51.340;8.288;2023-03-01T12:10:11;7.00;;;6.30;;
9160;SDS011;4615;51.340;8.288;2023-03-01T12:12:45;7.93;;;6.40;;
9160;SDS011;4615;51.340;8.288;2023-03-01T12:15:32;7.57;;;6.25;;
9160;SDS011;4615;51.340;8.288;2023-03-01T12:18:13;7.20;;;6.30;;
9160;SDS011;4615;51.340;8.288;2023-03-01T12:20:46;9.17;;;5.90;;
9160;SDS011;4615;51.340;8.288;2023-03-01T12:23:34;6.25;;;5.60;;
9160;SDS011;4615;51.340;8.288;2023-03-01T12:26:03;7.95;;;5.63;;
9160;SDS011;4615;51.340;8.288;2023-03-01T12:28:39;6.82;;;6.07;;
9160;SDS011;4615;51.340;8.288;2023-03-01T12:31:16;6.38;;;5.78;;
9160;SDS011;4615;51.340;8.288;2023-03-01T12:33:54;7.68;;;6.30;;
9160;SDS011;4615;51.340;8.288;2023-03-01T12:36:27;8.60;;;6.63;;
9160;SDS011;4615;51.340;8.288;2023-03-01T12:38:59;6.95;;;6.25;;
9160;SDS011;4615;51.340;8.288;2023-03-01T12:41:43;7.10;;;6.40;;
9160;SDS011;4615;51.340;8.288;2023-03-01T12:44:20;7.40;;;6.60;;
9160;SDS011;4615;51.340;8.288;2023-03-01T12:46:52;7.95;;;6.47;;
9160;SDS011;4615;51.340;8.288;2023-03-01T12:49:27;8.13;;;6.82;;
9160;SDS011;4615;51.340;8.288;2023-03-01T12:51:56;9.67;;;7.00;;
9160;SDS011;4615;51.340;8.288;2023-03-01T12:54:26;8.27;;;6.72;;
9160;SDS011;4615;51.340;8.288;2023-03-01T12:56:53;7.18;;;6.47;;
9160;SDS011;4615;51.340;8.288;2023-03-01T12:59:23;7.43;;;6.63;;
9160;SDS011;4615;51.340;8.288;2023-03-01T13:01:52;7.80;;;6.25;;
9160;SDS011;4615;51.340;8.288;2023-03-01T13:04:30;8.95;;;6.68;;
9160;SDS011;4615;51.340;8.288;2023-03-01T13:07:07;7.60;;;6.65;;
9160;SDS011;4615;51.340;8.288;2023-03-01T13:09:37;7.38;;;6.55;;
9160;SDS011;4615;51.340;8.288;2023-03-01T13:14:51;7.60;;;6.87;;
9160;SDS011;4615;51.340;8.288;2023-03-01T13:17:29;7.00;;;6.30;;
9160;SDS011;4615;51.340;8.288;2023-03-01T13:19:57;7.40;;;6.67;;
9160;SDS011;4615;51.340;8.288;2023-03-01T13:22:25;7.43;;;6.65;;
9160;SDS011;4615;51.340;8.288;2023-03-01T13:24:57;7.75;;;6.85;;
9160;SDS011;4615;51.340;8.288;2023-03-01T13:27:27;8.00;;;7.20;;
9160;SDS011;4615;51.340;8.288;2023-03-01T13:29:56;7.07;;;6.38;;
9160;SDS011;4615;51.340;8.288;2023-03-01T13:32:25;7.20;;;6.50;;
9160;SDS011;4615;51.340;8.288;2023-03-01T13:34:56;7.63;;;6.55;;
9160;SDS011;4615;51.340;8.288;2023-03-01T13:37:24;7.53;;;6.72;;
9160;SDS011;4615;51.340;8.288;2023-03-01T13:39:54;7.28;;;6.43;;
9160;SDS011;4615;51.340;8.288;2023-03-01T13:42:33;7.70;;;6.67;;
9160;SDS011;4615;51.340;8.288;2023-03-01T13:45:01;8.68;;;6.30;;
9160;SDS011;4615;51.340;8.288;2023-03-01T13:47:28;7.43;;;6.32;;
9160;SDS011;4615;51.340;8.288;2023-03-01T13:49:56;6.82;;;5.90;;
9160;SDS011;4615;51.340;8.288;2023-03-01T13:52:29;9.20;;;6.00;;
9160;SDS011;4615;51.340;8.288;2023-03-01T13:54:56;7.30;;;6.22;;
9160;SDS011;4615;51.340;8.288;2023-03-01T13:57:24;7.90;;;5.80;;
9160;SDS011;4615;51.340;8.288;2023-03-01T13:59:52;7.18;;;6.18;;
9160;SDS011;4615;51.340;8.288;2023-03-01T14:02:19;7.70;;;5.70;;
9160;SDS011;4615;51.340;8.288;2023-03-01T14:04:55;7.28;;;5.82;;
9160;SDS011;4615;51.340;8.288;2023-03-01T14:07:22;7.15;;;5.88;;
9160;SDS011;4615;51.340;8.288;2023-03-01T14:09:51;6.50;;;5.80;;
9160;SDS011;4615;51.340;8.288;2023-03-01T14:12:26;7.43;;;5.60;;
9160;SDS011;4615;51.340;8.288;2023-03-01T14:14:57;7.10;;;6.40;;
9160;SDS011;4615;51.340;8.288;2023-03-01T14:17:30;7.00;;;6.28;;
9160;SDS011;4615;51.340;8.288;2023-03-01T14:20:02;7.43;;;6.63;;
9160;SDS011;4615;51.340;8.288;2023-03-01T14:22:30;10.38;;;9.38;;
9160;SDS011;4615;51.340;8.288;2023-03-01T14:24:58;13.27;;;12.00;;
9160;SDS011;4615;51.340;8.288;2023-03-01T14:27:26;7.07;;;6.25;;
9160;SDS011;4615;51.340;8.288;2023-03-01T14:29:54;6.73;;;6.03;;
9160;SDS011;4615;51.340;8.288;2023-03-01T14:32:22;6.93;;;5.85;;
9160;SDS011;4615;51.340;8.288;2023-03-01T14:34:51;6.55;;;5.88;;
9160;SDS011;4615;51.340;8.288;2023-03-01T14:37:19;6.70;;;5.75;;
9160;SDS011;4615;51.340;8.288;2023-03-01T14:39:45;6.38;;;5.60;;
9160;SDS011;4615;51.340;8.288;2023-03-01T14:42:12;6.22;;;5.53;;
9160;SDS011;4615;51.340;8.288;2023-03-01T14:44:40;6.20;;;5.57;;
9160;SDS011;4615;51.340;8.288;2023-03-01T14:47:10;7.40;;;5.60;;
9160;SDS011;4615;51.340;8.288;2023-03-01T14:49:38;7.20;;;5.60;;
9160;SDS011;4615;51.340;8.288;2023-03-01T14:52:07;6.43;;;5.80;;
9160;SDS011;4615;51.340;8.288;2023-03-01T14:54:35;7.78;;;6.07;;
9160;SDS011;4615;51.340;8.288;2023-03-01T14:57:03;6.68;;;5.72;;
9160;SDS011;4615;51.340;8.288;2023-03-01T14:59:30;7.70;;;5.80;;
9160;SDS011;4615;51.340;8.288;2023-03-01T15:01:59;6.55;;;5.30;;
9160;SDS011;4615;51.340;8.288;2023-03-01T15:04:26;8.47;;;5.53;;
9160;SDS011;4615;51.340;8.288;2023-03-01T15:06:53;6.53;;;5.57;;
9160;SDS011;4615;51.340;8.288;2023-03-01T15:09:22;7.40;;;6.25;;
9160;SDS011;4615;51.340;8.288;2023-03-01T15:11:48;8.63;;;6.50;;
9160;SDS011;4615;51.340;8.288;2023-03-01T15:14:27;7.18;;;6.47;;